Time;durP1;ratioP1;P1;durP2;ratioP2;P2;SDS_P1;SDS_P2;PMS_P1;PMS_P2;Temp;Humidity;BMP_temperature;BMP_pressure;BME280_temperature;BME280_humidity;BME280_pressure;Samples;Min_cycle;Max_cycle;Signal;HPM_P1;HPM_P2
2021/10/28 00:12:21;;;;;;;;;;;8.70;99.90;9.10;100085.00;;;;341661;28;85393;-93
2021/10/28 00:12:39;;;;;;;;;;;8.70;99.90;9.10;100080.00;;;;339022;28;83309;-93
2021/10/28 00:12:58;;;;;;;;;;;8.70;99.90;9.20;100086.00;;;;340234;28;87464;-92
2021/10/28 00:13:11;;;;;;;;;;;8.70;99.90;9.10;100095.00;;;;342501;28;83436;-92
2021/10/28 00:13:24;;;;;;;;;;;8.70;99.90;9.20;100078.00;;;;338881;28;86648;-92
2021/10/28 00:13:38;;;;;;;;;;;8.70;99.90;9.10;100082.00;;;;339603;28;83388;-92
2021/10/28 00:13:52;;;;;;;;;;;8.70;99.90;9.10;100078.00;;;;338986;28;87728;-92
2021/10/28 00:14:05;;;;;;;;;;;8.70;99.90;9.10;100079.00;;;;340302;28;83438;-92
2021/10/28 00:14:19;;;;;;;;;;;8.70;99.90;9.00;100087.00;;;;338798;28;86803;-93
2021/10/28 00:14:31;;;;;;;;;;;8.70;99.90;9.00;100079.00;;;;341814;28;83460;-93
2021/10/28 00:14:44;;;;;;;;;;;8.70;99.90;9.00;100086.00;;;;339004;28;88385;-93
2021/10/28 00:14:57;;;;;;;;;;;8.60;99.90;9.00;100090.00;;;;339113;28;83387;-92
2021/10/28 00:15:16;;;;;;;;;;;8.70;99.90;9.00;100090.00;;;;339006;28;87785;-92
2021/10/28 00:15:34;;;;;;;;;;;8.70;99.90;9.00;100080.00;;;;340310;28;83406;-93
2021/10/28 00:15:55;;;;;;;;;;;8.70;99.90;9.00;100085.00;;;;337679;28;87280;-92
2021/10/28 00:16:14;;;;;;;;;;;8.70;99.90;9.00;100081.00;;;;339723;28;82666;-93
2021/10/28 00:16:30;;;;;;;;;;;8.70;99.90;8.90;100086.00;;;;337669;28;85703;-92
2021/10/28 00:16:44;;;;;;;;;;;8.70;99.90;8.90;100069.00;;;;344654;28;83291;-92
2021/10/28 00:16:57;;;;;;;;;;;8.60;99.90;8.80;100080.00;;;;337418;28;87647;-93
2021/10/28 00:17:11;;;;;;;;;;;8.60;99.90;8.90;100083.00;;;;337322;28;83456;-92
2021/10/28 00:17:39;;;;;;;;;;;8.60;99.90;8.90;100077.00;;;;345913;28;86865;-92
2021/10/28 00:18:17;;;;;;;;;;;8.60;99.90;9.00;100084.00;;;;344347;28;85588;-92
2021/10/28 00:18:41;;;;;;;;;;;8.60;99.90;9.00;100079.00;;;;337905;28;82413;-92
2021/10/28 00:19:11;;;;;;;;;;;8.60;99.90;8.90;100080.00;;;;338972;28;86610;-93
2021/10/28 00:19:22;;;;;;;;;;;8.60;99.90;8.90;100079.00;;;;342173;28;83987;-93
2021/10/28 00:19:35;;;;;;;;;;;8.60;99.90;8.90;100077.00;;;;341254;28;86339;-92
2021/10/28 00:19:46;;;;;;;;;;;8.60;99.90;9.00;100086.00;;;;337827;28;83129;-92
2021/10/28 00:19:58;;;;;;;;;;;8.60;99.90;9.00;100081.00;;;;338901;28;86659;-91
2021/10/28 00:20:10;;;;;;;;;;;8.60;99.90;8.90;100077.00;;;;336138;28;83360;-92
2021/10/28 00:20:22;;;;;;;;;;;8.60;99.90;8.90;100081.00;;;;337627;28;87199;-92
2021/10/28 00:20:34;;;;;;;;;;;8.60;99.90;8.90;100082.00;;;;337757;28;83468;-93
2021/10/28 00:20:52;;;;;;;;;;;8.60;99.90;8.90;100081.00;;;;337615;28;86639;-93
2021/10/28 00:21:04;;;;;;;;;;;8.60;99.90;8.90;100082.00;;;;340432;28;83490;-92
2021/10/28 00:21:16;;;;;;;;;;;8.60;99.90;8.90;100077.00;;;;336322;28;87478;-93
2021/10/28 00:21:31;;;;;;;;;;;8.60;99.90;9.00;100077.00;;;;337742;28;82326;-92
2021/10/28 00:21:44;;;;;;;;;;;8.60;99.90;8.90;100078.00;;;;338961;28;86358;-93
2021/10/28 00:21:56;;;;;;;;;;;8.60;99.90;8.90;100076.00;;;;336418;28;83422;-91
2021/10/28 00:22:09;;;;;;;;;;;8.60;99.90;8.90;100079.00;;;;337079;28;85647;-93
2021/10/28 00:22:22;;;;;;;;;;;8.60;99.90;9.00;100078.00;;;;338614;28;82461;-93
2021/10/28 00:22:35;;;;;;;;;;;8.60;99.90;9.10;100078.00;;;;338823;28;87226;-93
2021/10/28 00:22:47;;;;;;;;;;;8.60;99.90;9.00;100083.00;;;;336467;28;83311;-91
2021/10/28 00:22:59;;;;;;;;;;;8.60;99.90;9.00;100081.00;;;;340209;28;87417;-93
2021/10/28 00:23:11;;;;;;;;;;;8.60;99.90;9.00;100083.00;;;;340340;27;83333;-92
2021/10/28 00:23:24;;;;;;;;;;;8.60;99.90;9.00;100076.00;;;;340384;28;86042;-93
2021/10/28 00:23:51;;;;;;;;;;;8.60;99.90;9.00;100076.00;;;;338956;28;82545;-92
2021/10/28 00:24:05;;;;;;;;;;;8.60;99.90;9.20;100080.00;;;;337562;28;86831;-92
2021/10/28 00:24:17;;;;;;;;;;;8.60;99.90;9.00;100080.00;;;;337803;28;83336;-92
2021/10/28 00:24:29;;;;;;;;;;;8.60;99.90;9.00;100081.00;;;;337698;28;85906;-93
2021/10/28 00:24:41;;;;;;;;;;;8.60;99.90;8.90;100078.00;;;;337716;28;83520;-92
2021/10/28 00:24:52;;;;;;;;;;;8.60;99.90;8.90;100076.00;;;;338987;28;87255;-93
2021/10/28 00:25:05;;;;;;;;;;;8.60;99.90;9.00;100083.00;;;;339978;28;83478;-92
2021/10/28 00:25:17;;;;;;;;;;;8.60;99.90;9.00;100079.00;;;;337485;28;87385;-92
2021/10/28 00:25:29;;;;;;;;;;;8.60;99.90;9.00;100077.00;;;;339070;28;83374;-93
2021/10/28 00:25:41;;;;;;;;;;;8.60;99.90;9.10;100078.00;;;;339090;28;86287;-93
2021/10/28 00:25:53;;;;;;;;;;;8.60;99.90;9.20;100074.00;;;;337654;28;82425;-92
2021/10/28 00:26:05;;;;;;;;;;;8.60;99.90;9.10;100079.00;;;;340055;28;86450;-93
2021/10/28 00:26:17;;;;;;;;;;;8.60;99.90;9.10;100076.00;;;;337770;28;83359;-93
2021/10/28 00:26:29;;;;;;;;;;;8.60;99.90;9.10;100074.00;;;;337775;28;87132;-92
2021/10/28 00:26:43;;;;;;;;;;;8.60;99.90;9.10;100079.00;;;;337747;28;83399;-93
2021/10/28 00:26:55;;;;;;;;;;;8.70;99.90;9.00;100081.00;;;;336365;28;86306;-93
2021/10/28 00:27:07;;;;;;;;;;;8.60;99.90;9.20;100075.00;;;;337732;28;83315;-93
2021/10/28 00:27:22;;;;;;;;;;;8.60;99.90;9.10;100074.00;;;;339019;28;84874;-93
2021/10/28 00:27:33;;;;;;;;;;;8.60;99.90;9.20;100078.00;;;;336249;28;82375;-93
2021/10/28 00:27:45;;;;;;;;;;;8.70;99.90;9.20;100075.00;;;;340393;28;86686;-92
2021/10/28 00:27:57;;;;;;;;;;;8.60;99.90;9.10;100060.00;;;;337660;28;82542;-93
2021/10/28 00:28:10;;;;;;;;;;;8.70;99.90;9.10;100068.00;;;;343999;28;86008;-92
2021/10/28 00:28:22;;;;;;;;;;;8.60;99.90;9.10;100070.00;;;;339706;28;83524;-92
2021/10/28 00:28:35;;;;;;;;;;;8.70;99.90;9.10;100074.00;;;;339449;28;86253;-92
2021/10/28 00:28:47;;;;;;;;;;;8.60;99.90;9.10;100068.00;;;;337752;28;83456;-92
2021/10/28 00:29:00;;;;;;;;;;;8.70;99.90;9.10;100075.00;;;;338959;28;86297;-93
2021/10/28 00:29:18;;;;;;;;;;;8.70;99.90;9.20;100070.00;;;;339086;28;82450;-93
2021/10/28 00:29:30;;;;;;;;;;;8.60;99.90;9.20;100061.00;;;;339032;28;87005;-92
2021/10/28 00:29:42;;;;;;;;;;;8.60;99.90;9.00;100067.00;;;;337738;28;82466;-93
2021/10/28 00:29:54;;;;;;;;;;;8.70;99.90;9.00;100066.00;;;;337688;28;86836;-93
2021/10/28 00:30:06;;;;;;;;;;;8.60;99.90;9.10;100059.00;;;;337837;28;82314;-93
2021/10/28 00:30:19;;;;;;;;;;;8.70;99.90;9.00;100059.00;;;;338995;28;86284;-93
2021/10/28 00:30:30;;;;;;;;;;;8.60;99.90;9.10;100062.00;;;;339046;28;82493;-93
2021/10/28 00:30:42;;;;;;;;;;;8.60;99.90;9.10;100055.00;;;;338882;28;87857;-93
2021/10/28 00:30:54;;;;;;;;;;;8.70;99.90;9.00;100064.00;;;;337561;28;83456;-93
2021/10/28 00:31:06;;;;;;;;;;;8.60;99.90;8.90;100060.00;;;;338326;28;87012;-91
2021/10/28 00:31:18;;;;;;;;;;;8.60;99.90;8.90;100075.00;;;;346960;28;82582;-93
2021/10/28 00:31:32;;;;;;;;;;;8.60;99.90;8.90;100063.00;;;;344491;28;87259;-93
2021/10/28 00:31:44;;;;;;;;;;;8.60;99.90;9.00;100063.00;;;;344652;28;83528;-92
2021/10/28 00:31:57;;;;;;;;;;;8.60;99.90;8.90;100055.00;;;;345823;28;88192;-92
2021/10/28 00:32:08;;;;;;;;;;;8.60;99.90;8.80;100068.00;;;;345784;28;82389;-92
2021/10/28 00:32:20;;;;;;;;;;;8.60;99.90;8.90;100068.00;;;;347385;28;87477;-93
2021/10/28 00:32:32;;;;;;;;;;;8.60;99.90;9.10;100064.00;;;;347352;28;83429;-92
2021/10/28 00:32:44;;;;;;;;;;;8.60;99.90;9.00;100067.00;;;;344582;28;87032;-92
2021/10/28 00:32:56;;;;;;;;;;;8.60;99.90;8.90;100061.00;;;;346069;28;83154;-92
2021/10/28 00:33:08;;;;;;;;;;;8.60;99.90;8.90;100066.00;;;;347473;28;86918;-93
2021/10/28 00:33:20;;;;;;;;;;;8.60;99.90;8.90;100061.00;;;;346044;28;82511;-91
2021/10/28 00:33:32;;;;;;;;;;;8.60;99.90;8.80;100059.00;;;;347178;28;86736;-92
2021/10/28 00:33:45;;;;;;;;;;;8.60;99.90;8.80;100055.00;;;;347518;28;82455;-93
2021/10/28 00:33:57;;;;;;;;;;;8.60;99.90;8.80;100056.00;;;;347071;28;85010;-92
2021/10/28 00:34:09;;;;;;;;;;;8.60;99.90;8.80;100064.00;;;;346944;28;83320;-92
2021/10/28 00:34:21;;;;;;;;;;;8.60;99.90;8.80;100068.00;;;;349983;27;87599;-92
2021/10/28 00:34:33;;;;;;;;;;;8.60;99.90;8.70;100066.00;;;;350018;27;83392;-92
2021/10/28 00:34:45;;;;;;;;;;;8.50;99.90;8.70;100053.00;;;;346035;28;84617;-92
2021/10/28 00:34:56;;;;;;;;;;;8.50;99.90;8.70;100064.00;;;;348832;27;83717;-92
2021/10/28 00:35:09;;;;;;;;;;;8.50;99.90;8.70;100060.00;;;;347461;28;87149;-92
2021/10/28 00:35:21;;;;;;;;;;;8.50;99.90;8.70;100057.00;;;;348897;27;83441;-91
2021/10/28 00:35:34;;;;;;;;;;;8.50;99.90;8.60;100064.00;;;;348534;27;86422;-93
2021/10/28 00:35:46;;;;;;;;;;;8.50;99.90;8.60;100063.00;;;;347431;28;83358;-92
2021/10/28 00:36:02;;;;;;;;;;;8.50;99.90;8.60;100068.00;;;;347306;28;87599;-92
2021/10/28 00:36:14;;;;;;;;;;;8.50;99.90;8.70;100057.00;;;;347323;28;83191;-92
2021/10/28 00:36:26;;;;;;;;;;;8.50;99.90;8.70;100070.00;;;;345825;28;86319;-93
2021/10/28 00:36:38;;;;;;;;;;;8.40;99.90;8.70;100061.00;;;;345887;28;83419;-92
2021/10/28 00:36:51;;;;;;;;;;;8.40;99.90;8.70;100063.00;;;;345989;28;86455;-93
2021/10/28 00:37:03;;;;;;;;;;;8.40;99.90;8.80;100059.00;;;;344888;28;83324;-92
2021/10/28 00:37:15;;;;;;;;;;;8.40;99.90;8.90;100061.00;;;;344678;28;85640;-93
2021/10/28 00:37:28;;;;;;;;;;;8.40;99.90;8.80;100064.00;;;;347496;28;82451;-92
2021/10/28 00:37:40;;;;;;;;;;;8.40;99.90;8.70;100065.00;;;;347279;28;86470;-93
2021/10/28 00:37:52;;;;;;;;;;;8.40;99.90;8.90;100066.00;;;;346038;28;83481;-93
2021/10/28 00:38:04;;;;;;;;;;;8.50;99.90;9.00;100064.00;;;;349061;27;86072;-92
2021/10/28 00:38:15;;;;;;;;;;;8.40;99.90;9.00;100065.00;;;;350385;27;82272;-93
2021/10/28 00:38:28;;;;;;;;;;;8.50;99.90;9.00;100065.00;;;;347298;28;86225;-93
2021/10/28 00:38:40;;;;;;;;;;;8.50;99.90;9.00;100063.00;;;;347390;27;82528;-92
2021/10/28 00:38:52;;;;;;;;;;;8.50;99.90;9.00;100068.00;;;;347136;28;85540;-92
2021/10/28 00:39:05;;;;;;;;;;;8.50;99.90;8.90;100070.00;;;;350238;27;83499;-92
2021/10/28 00:39:17;;;;;;;;;;;8.50;99.90;8.90;100065.00;;;;347283;28;86869;-93
2021/10/28 00:39:29;;;;;;;;;;;8.50;99.90;8.90;100068.00;;;;344860;28;82409;-93
2021/10/28 00:39:40;;;;;;;;;;;8.50;99.90;8.90;100065.00;;;;348692;27;87233;-91
2021/10/28 00:39:52;;;;;;;;;;;8.50;99.90;8.90;100074.00;;;;347363;28;83354;-93
2021/10/28 00:40:08;;;;;;;;;;;8.50;99.90;8.90;100065.00;;;;345321;28;87114;-92
2021/10/28 00:40:20;;;;;;;;;;;8.50;99.90;8.90;100059.00;;;;346866;28;82442;-92
2021/10/28 00:40:33;;;;;;;;;;;8.50;99.90;8.90;100057.00;;;;344732;28;87315;-92
2021/10/28 00:40:44;;;;;;;;;;;8.50;99.90;9.00;100062.00;;;;348794;27;83305;-92
2021/10/28 00:40:56;;;;;;;;;;;8.50;99.90;9.00;100069.00;;;;348715;27;87369;-92
2021/10/28 00:41:08;;;;;;;;;;;8.50;99.90;8.90;100062.00;;;;346658;28;82455;-92
2021/10/28 00:41:20;;;;;;;;;;;8.50;99.90;8.90;100063.00;;;;348475;27;85425;-93
2021/10/28 00:41:32;;;;;;;;;;;8.50;99.90;8.90;100062.00;;;;347516;28;82420;-94
2021/10/28 00:41:43;;;;;;;;;;;8.40;99.90;8.80;100062.00;;;;347274;28;85936;-93
2021/10/28 00:41:55;;;;;;;;;;;8.40;99.90;9.00;100067.00;;;;347277;28;83358;-91
2021/10/28 00:42:07;;;;;;;;;;;8.40;99.90;8.90;100050.00;;;;348570;27;85757;-92
2021/10/28 00:42:19;;;;;;;;;;;8.40;99.90;8.80;100074.00;;;;348702;27;83258;-93
2021/10/28 00:42:31;;;;;;;;;;;8.40;99.90;8.90;100070.00;;;;345725;28;86399;-93
2021/10/28 00:42:43;;;;;;;;;;;8.40;99.90;8.80;100057.00;;;;347370;28;83349;-93
2021/10/28 00:42:56;;;;;;;;;;;8.40;99.90;8.90;100059.00;;;;345888;28;86541;-93
2021/10/28 00:43:07;;;;;;;;;;;8.40;99.90;8.90;100066.00;;;;348123;27;83645;-92
2021/10/28 00:43:19;;;;;;;;;;;8.40;99.90;9.00;100063.00;;;;347072;27;85392;-93
2021/10/28 00:43:33;;;;;;;;;;;8.40;99.90;9.00;100064.00;;;;343394;28;83303;-93
2021/10/28 00:43:47;;;;;;;;;;;8.40;99.90;9.10;100067.00;;;;344526;28;86086;-93
2021/10/28 00:43:59;;;;;;;;;;;8.50;99.90;9.20;100062.00;;;;344637;28;82463;-93
2021/10/28 00:44:11;;;;;;;;;;;8.50;99.90;9.20;100068.00;;;;345665;28;87818;-93
2021/10/28 00:44:23;;;;;;;;;;;8.50;99.90;9.20;100061.00;;;;346102;28;82318;-92
2021/10/28 00:44:35;;;;;;;;;;;8.50;99.90;9.10;100053.00;;;;345862;28;87373;-93
2021/10/28 00:44:46;;;;;;;;;;;8.50;99.90;9.10;100065.00;;;;347282;28;83321;-93
2021/10/28 00:44:58;;;;;;;;;;;8.50;99.90;9.10;100068.00;;;;347080;28;86824;-92
2021/10/28 00:45:10;;;;;;;;;;;8.50;99.90;9.10;100068.00;;;;346007;28;82376;-92
2021/10/28 00:45:22;;;;;;;;;;;8.50;99.90;9.10;100069.00;;;;347165;28;86270;-92
2021/10/28 00:45:40;;;;;;;;;;;8.50;99.90;9.00;100066.00;;;;347248;28;82492;-92
2021/10/28 00:45:52;;;;;;;;;;;8.50;99.90;9.10;100063.00;;;;347111;28;86499;-92
2021/10/28 00:46:05;;;;;;;;;;;8.50;99.90;9.00;100059.00;;;;347766;28;82590;-92
2021/10/28 00:46:18;;;;;;;;;;;8.50;99.90;9.00;100070.00;;;;346012;28;86176;-92
2021/10/28 00:46:31;;;;;;;;;;;8.50;99.90;8.90;100079.00;;;;347290;28;82476;-92
2021/10/28 00:46:43;;;;;;;;;;;8.50;99.90;8.90;100068.00;;;;350061;27;86562;-93
2021/10/28 00:46:55;;;;;;;;;;;8.50;99.90;9.00;100068.00;;;;347167;28;82512;-92
2021/10/28 00:47:08;;;;;;;;;;;8.50;99.90;9.00;100061.00;;;;350738;27;86195;-92
2021/10/28 00:47:20;;;;;;;;;;;8.50;99.90;8.90;100069.00;;;;347158;28;83359;-93
2021/10/28 00:47:38;;;;;;;;;;;8.50;99.90;8.90;100059.00;;;;348523;28;86914;-92
2021/10/28 00:47:50;;;;;;;;;;;8.50;99.90;8.90;100069.00;;;;348670;28;83408;-93
2021/10/28 00:48:01;;;;;;;;;;;8.50;99.90;9.00;100074.00;;;;348284;28;87670;-91
2021/10/28 00:48:13;;;;;;;;;;;8.50;99.90;8.90;100065.00;;;;350118;27;82478;-92
2021/10/28 00:48:25;;;;;;;;;;;8.50;99.90;9.00;100063.00;;;;346876;28;87451;-93
2021/10/28 00:48:37;;;;;;;;;;;8.50;99.90;8.90;100069.00;;;;347322;28;82386;-91
2021/10/28 00:48:49;;;;;;;;;;;8.50;99.90;9.00;100061.00;;;;346990;28;87448;-93
2021/10/28 00:49:04;;;;;;;;;;;8.50;99.90;8.80;100057.00;;;;345456;28;82534;-93
2021/10/28 00:49:16;;;;;;;;;;;8.50;99.90;9.00;100055.00;;;;347034;28;86451;-92
2021/10/28 00:49:29;;;;;;;;;;;8.50;99.90;8.90;100061.00;;;;348335;28;82535;-93
2021/10/28 00:49:40;;;;;;;;;;;8.50;99.90;8.90;100061.00;;;;344233;28;86457;-92
2021/10/28 00:49:52;;;;;;;;;;;8.50;99.90;8.90;100053.00;;;;344378;28;82392;-93
2021/10/28 00:50:05;;;;;;;;;;;8.50;99.90;8.90;100059.00;;;;348451;27;87144;-92
2021/10/28 00:50:17;;;;;;;;;;;8.40;99.90;8.90;100062.00;;;;350043;27;82416;-93
2021/10/28 00:50:29;;;;;;;;;;;8.50;99.90;8.90;100062.00;;;;346817;28;85310;-92
2021/10/28 00:50:41;;;;;;;;;;;8.40;99.90;9.00;100062.00;;;;348706;28;82335;-92
2021/10/28 00:50:53;;;;;;;;;;;8.50;99.90;9.00;100065.00;;;;349936;27;83928;-93
2021/10/28 00:51:07;;;;;;;;;;;8.50;99.90;9.00;100065.00;;;;349921;27;82503;-93
2021/10/28 00:51:20;;;;;;;;;;;8.40;99.90;9.00;100064.00;;;;348390;28;86453;-92
2021/10/28 00:51:32;;;;;;;;;;;8.40;99.90;9.10;100061.00;;;;347117;28;82396;-93
2021/10/28 00:51:44;;;;;;;;;;;8.50;99.90;9.20;100063.00;;;;347273;28;83738;-92
2021/10/28 00:51:56;;;;;;;;;;;8.50;99.90;9.10;100059.00;;;;346863;28;83406;-91
2021/10/28 00:52:07;;;;;;;;;;;8.50;99.90;9.10;100059.00;;;;347620;28;86204;-93
2021/10/28 00:52:19;;;;;;;;;;;8.50;99.90;9.10;100058.00;;;;348353;28;83484;-92
2021/10/28 00:52:33;;;;;;;;;;;8.50;99.90;9.00;100058.00;;;;349797;27;86137;-92
2021/10/28 00:52:45;;;;;;;;;;;8.50;99.90;8.90;100059.00;;;;348418;28;83427;-92
2021/10/28 00:52:57;;;;;;;;;;;8.50;99.90;8.80;100057.00;;;;348232;28;86351;-92
2021/10/28 00:53:08;;;;;;;;;;;8.50;99.90;8.80;100044.00;;;;345236;28;82549;-93
2021/10/28 00:53:22;;;;;;;;;;;8.50;99.90;8.80;100055.00;;;;346463;28;87255;-93
2021/10/28 00:53:34;;;;;;;;;;;8.50;99.90;8.80;100055.00;;;;347056;28;82453;-93
2021/10/28 00:53:46;;;;;;;;;;;8.50;99.90;8.80;100061.00;;;;348386;28;85969;-93
2021/10/28 00:53:59;;;;;;;;;;;8.50;99.90;8.80;100057.00;;;;348392;28;83448;-93
2021/10/28 00:54:12;;;;;;;;;;;8.40;99.90;8.80;100055.00;;;;345528;28;85886;-92
2021/10/28 00:54:24;;;;;;;;;;;8.40;99.90;8.70;100063.00;;;;345501;28;82354;-93
2021/10/28 00:54:36;;;;;;;;;;;8.40;99.90;8.70;100065.00;;;;348337;28;85272;-92
2021/10/28 00:54:48;;;;;;;;;;;8.40;99.90;8.80;100055.00;;;;347186;28;83478;-92
2021/10/28 00:55:00;;;;;;;;;;;8.40;99.90;8.80;100051.00;;;;347916;27;87671;-92
2021/10/28 00:55:12;;;;;;;;;;;8.40;99.90;8.80;100060.00;;;;349918;27;82513;-92
2021/10/28 00:55:24;;;;;;;;;;;8.40;99.90;8.80;100060.00;;;;346943;28;87246;-93
2021/10/28 00:55:36;;;;;;;;;;;8.40;99.90;8.70;100059.00;;;;349321;27;83341;-92
2021/10/28 00:55:51;;;;;;;;;;;8.40;99.90;8.70;100058.00;;;;349758;27;86856;-92
2021/10/28 00:56:03;;;;;;;;;;;8.40;99.90;8.70;100058.00;;;;348335;27;82566;-92
2021/10/28 00:56:22;;;;;;;;;;;8.40;99.90;8.70;100061.00;;;;345477;28;86939;-92
2021/10/28 00:56:35;;;;;;;;;;;8.40;99.90;8.80;100058.00;;;;347870;28;83378;-93
2021/10/28 00:56:48;;;;;;;;;;;8.40;99.90;8.80;100061.00;;;;348171;28;87944;-93
2021/10/28 00:56:59;;;;;;;;;;;8.40;99.90;8.80;100062.00;;;;347714;28;82536;-92
2021/10/28 00:57:11;;;;;;;;;;;8.40;99.90;8.70;100052.00;;;;346497;28;85984;-92
2021/10/28 00:57:23;;;;;;;;;;;8.40;99.90;8.70;100058.00;;;;346722;28;82532;-92
2021/10/28 00:57:35;;;;;;;;;;;8.40;99.90;8.70;100064.00;;;;347842;28;87632;-92
2021/10/28 00:57:47;;;;;;;;;;;8.40;99.90;8.70;100066.00;;;;350928;27;82272;-92
2021/10/28 00:57:59;;;;;;;;;;;8.40;99.90;8.70;100061.00;;;;346302;28;86235;-93
2021/10/28 00:58:11;;;;;;;;;;;8.40;99.90;8.70;100061.00;;;;348007;28;82440;-92
2021/10/28 00:58:23;;;;;;;;;;;8.40;99.90;8.80;100053.00;;;;347758;28;85967;-93
2021/10/28 00:58:35;;;;;;;;;;;8.40;99.90;8.80;100058.00;;;;348582;27;82573;-94
2021/10/28 00:58:47;;;;;;;;;;;8.40;99.90;8.70;100061.00;;;;349123;27;86310;-93
2021/10/28 00:59:01;;;;;;;;;;;8.40;99.90;8.70;100064.00;;;;349316;27;83252;-93
2021/10/28 00:59:13;;;;;;;;;;;8.40;99.90;8.70;100061.00;;;;347620;28;87311;-92
2021/10/28 00:59:25;;;;;;;;;;;8.40;99.90;8.70;100059.00;;;;347975;28;82475;-92
2021/10/28 00:59:36;;;;;;;;;;;8.40;99.90;8.70;100066.00;;;;348924;27;85899;-92
2021/10/28 00:59:48;;;;;;;;;;;8.40;99.90;8.60;100065.00;;;;349316;27;82321;-93
2021/10/28 01:00:03;;;;;;;;;;;8.40;99.90;8.60;100068.00;;;;344821;28;87646;-93
2021/10/28 01:00:15;;;;;;;;;;;8.30;99.90;8.60;100061.00;;;;347781;28;83337;-92
2021/10/28 01:00:28;;;;;;;;;;;8.40;99.90;8.80;100060.00;;;;347544;28;87356;-93
2021/10/28 01:00:40;;;;;;;;;;;8.30;99.90;8.80;100062.00;;;;345893;28;83543;-92
2021/10/28 01:00:51;;;;;;;;;;;8.40;99.90;8.80;100063.00;;;;347375;28;86290;-93
2021/10/28 01:01:04;;;;;;;;;;;8.30;99.90;8.80;100061.00;;;;345554;28;83571;-92
2021/10/28 01:01:17;;;;;;;;;;;8.30;99.90;8.80;100058.00;;;;345883;28;86351;-92
2021/10/28 01:01:29;;;;;;;;;;;8.30;99.90;8.70;100063.00;;;;347462;28;82595;-92
2021/10/28 01:01:41;;;;;;;;;;;8.30;99.90;8.70;100064.00;;;;345951;28;83458;-92
2021/10/28 01:01:53;;;;;;;;;;;8.30;99.90;8.60;100057.00;;;;344676;28;83381;-92
2021/10/28 01:02:05;;;;;;;;;;;8.30;99.90;8.70;100058.00;;;;347113;28;86876;-91
2021/10/28 01:02:18;;;;;;;;;;;8.30;99.90;8.60;100065.00;;;;344631;28;83407;-93
2021/10/28 01:02:30;;;;;;;;;;;8.30;99.90;8.60;100057.00;;;;344567;28;86005;-92
2021/10/28 01:02:42;;;;;;;;;;;8.30;99.90;8.60;100076.00;;;;344620;28;82553;-93
2021/10/28 01:02:54;;;;;;;;;;;8.30;99.90;8.70;100065.00;;;;347262;28;87364;-92
2021/10/28 01:03:08;;;;;;;;;;;8.30;99.90;8.70;100058.00;;;;345923;28;82542;-92
2021/10/28 01:03:19;;;;;;;;;;;8.30;99.90;8.70;100069.00;;;;347107;28;86802;-93
2021/10/28 01:03:33;;;;;;;;;;;8.30;99.90;8.70;100069.00;;;;347334;28;83368;-92
2021/10/28 01:03:45;;;;;;;;;;;8.30;99.90;8.80;100054.00;;;;345875;28;87953;-92
2021/10/28 01:03:57;;;;;;;;;;;8.30;99.90;8.70;100067.00;;;;343191;28;83263;-93
2021/10/28 01:04:09;;;;;;;;;;;8.30;99.90;8.70;100060.00;;;;344153;28;89453;-93
2021/10/28 01:04:21;;;;;;;;;;;8.30;99.90;8.70;100069.00;;;;345875;28;83295;-93
2021/10/28 01:04:33;;;;;;;;;;;8.30;99.90;8.80;100060.00;;;;344461;28;86122;-92
2021/10/28 01:04:45;;;;;;;;;;;8.30;99.90;8.90;100059.00;;;;347188;27;83612;-92
2021/10/28 01:04:57;;;;;;;;;;;8.30;99.90;9.00;100062.00;;;;344560;28;86118;-92
2021/10/28 01:05:09;;;;;;;;;;;8.30;99.90;9.00;100067.00;;;;348285;27;82436;-92
2021/10/28 01:05:21;;;;;;;;;;;8.30;99.90;9.00;100060.00;;;;347010;28;86407;-93
2021/10/28 01:07:46;;;;;;;;;;;8.40;99.90;8.70;100064.00;;;;321119;23;83587;-89
2021/10/28 01:07:58;;;;;;;;;;;8.40;99.90;8.60;100064.00;;;;332831;28;90594;-90
2021/10/28 01:08:10;;;;;;;;;;;8.40;99.90;8.70;100063.00;;;;333788;29;83416;-90
2021/10/28 01:08:22;;;;;;;;;;;8.40;99.90;8.70;100065.00;;;;334680;29;91594;-90
2021/10/28 01:08:37;;;;;;;;;;;8.40;99.90;8.70;100062.00;;;;332395;29;82408;-89
2021/10/28 01:08:49;;;;;;;;;;;8.30;99.90;8.70;100061.00;;;;329584;29;91247;-90
2021/10/28 01:09:01;;;;;;;;;;;8.30;99.90;8.60;100061.00;;;;332505;29;82512;-90
2021/10/28 01:09:13;;;;;;;;;;;8.30;99.90;8.70;100058.00;;;;333315;29;91090;-89
2021/10/28 01:09:25;;;;;;;;;;;8.30;99.90;8.70;100057.00;;;;332475;29;82432;-89
2021/10/28 01:09:36;;;;;;;;;;;8.30;99.90;8.80;100058.00;;;;333515;29;90172;-89
2021/10/28 01:09:48;;;;;;;;;;;8.30;99.90;8.80;100051.00;;;;332471;29;83298;-89
2021/10/28 01:10:00;;;;;;;;;;;8.30;99.90;8.80;100052.00;;;;333327;29;91466;-89
2021/10/28 01:10:12;;;;;;;;;;;8.30;99.90;8.80;100053.00;;;;333856;29;83422;-90
2021/10/28 01:10:24;;;;;;;;;;;8.30;99.90;8.80;100048.00;;;;330926;29;92065;-89
2021/10/28 01:10:36;;;;;;;;;;;8.30;99.90;8.80;100056.00;;;;333915;29;82559;-90
2021/10/28 01:10:49;;;;;;;;;;;8.30;99.90;8.70;100065.00;;;;332127;28;92758;-89
2021/10/28 01:11:00;;;;;;;;;;;8.30;99.90;8.60;100060.00;;;;333837;29;83351;-89
2021/10/28 01:11:13;;;;;;;;;;;8.30;99.90;8.60;100059.00;;;;332163;29;91550;-90
2021/10/28 01:11:28;;;;;;;;;;;8.30;99.90;8.60;100057.00;;;;329984;29;83410;-90
2021/10/28 01:11:40;;;;;;;;;;;8.30;99.90;8.60;100050.00;;;;333545;29;90325;-90
2021/10/28 01:11:53;;;;;;;;;;;8.30;99.90;8.60;100060.00;;;;331246;29;83417;-90
2021/10/28 01:12:05;;;;;;;;;;;8.30;99.90;8.70;100053.00;;;;330849;29;90399;-89
2021/10/28 01:12:17;;;;;;;;;;;8.30;99.90;8.80;100052.00;;;;332586;29;82335;-90
2021/10/28 01:12:29;;;;;;;;;;;8.30;99.90;8.70;100048.00;;;;330916;29;90286;-89
2021/10/28 01:12:41;;;;;;;;;;;8.30;99.90;8.60;100054.00;;;;330099;29;83278;-90
2021/10/28 01:12:52;;;;;;;;;;;8.30;99.90;8.60;100054.00;;;;332115;29;91192;-89
2021/10/28 01:13:04;;;;;;;;;;;8.30;99.90;8.60;100056.00;;;;332622;29;83347;-90
2021/10/28 01:13:17;;;;;;;;;;;8.30;99.90;8.50;100045.00;;;;330945;29;90325;-90
2021/10/28 01:13:29;;;;;;;;;;;8.30;99.90;8.60;100055.00;;;;330044;29;82422;-90
2021/10/28 01:13:41;;;;;;;;;;;8.30;99.90;8.80;100050.00;;;;330790;29;92064;-90
2021/10/28 01:13:55;;;;;;;;;;;8.30;99.90;8.90;100051.00;;;;331316;29;82379;-89
2021/10/28 01:14:06;;;;;;;;;;;8.20;99.90;8.80;100053.00;;;;330897;28;88001;-90
2021/10/28 01:14:18;;;;;;;;;;;8.30;99.90;8.70;100053.00;;;;332620;29;82466;-90
2021/10/28 01:14:41;;;;;;;;;;;8.30;99.90;8.60;100056.00;;;;330889;29;90945;-90
2021/10/28 01:14:52;;;;;;;;;;;8.30;99.90;8.50;100046.00;;;;330050;29;83310;-89
2021/10/28 01:15:12;;;;;;;;;;;8.20;99.90;8.60;100052.00;;;;332115;29;92428;-90
2021/10/28 01:15:24;;;;;;;;;;;8.30;99.90;8.70;100046.00;;;;329952;29;83390;-89
2021/10/28 01:15:36;;;;;;;;;;;8.20;99.90;8.80;100059.00;;;;330770;28;92360;-90
2021/10/28 01:15:48;;;;;;;;;;;8.30;99.90;8.80;100053.00;;;;331297;29;82363;-90
2021/10/28 01:16:00;;;;;;;;;;;8.30;99.90;8.80;100045.00;;;;329630;29;91526;-90
2021/10/28 01:16:12;;;;;;;;;;;8.30;99.90;8.70;100045.00;;;;330017;29;83498;-89
2021/10/28 01:16:24;;;;;;;;;;;8.30;99.90;8.60;100060.00;;;;330882;29;91332;-89
2021/10/28 01:16:35;;;;;;;;;;;8.30;99.90;8.60;100058.00;;;;330100;29;83412;-90
2021/10/28 01:16:48;;;;;;;;;;;8.30;99.90;8.60;100050.00;;;;329675;29;90481;-90
2021/10/28 01:17:00;;;;;;;;;;;8.30;99.90;8.70;100051.00;;;;330002;29;83436;-89
2021/10/28 01:17:12;;;;;;;;;;;8.20;99.90;8.70;100057.00;;;;329550;29;91491;-90
2021/10/28 01:17:29;;;;;;;;;;;8.20;99.90;8.70;100050.00;;;;328758;29;82593;-89
2021/10/28 01:17:41;;;;;;;;;;;8.30;99.90;8.80;100049.00;;;;330824;29;91533;-90
2021/10/28 01:17:52;;;;;;;;;;;8.30;99.90;8.70;100049.00;;;;329968;29;83268;-90
2021/10/28 01:18:10;;;;;;;;;;;8.20;99.90;8.80;100052.00;;;;332109;28;90942;-90
2021/10/28 01:18:23;;;;;;;;;;;8.30;99.90;8.80;100052.00;;;;332826;29;83516;-90
2021/10/28 01:18:38;;;;;;;;;;;8.30;99.90;8.90;100045.00;;;;333691;29;90861;-90
2021/10/28 01:18:49;;;;;;;;;;;8.30;99.90;8.90;100051.00;;;;332717;28;83449;-90
2021/10/28 01:19:01;;;;;;;;;;;8.30;99.90;8.90;100046.00;;;;331084;28;90388;-90
2021/10/28 01:19:13;;;;;;;;;;;8.30;99.90;8.90;100053.00;;;;332789;29;83362;-91